sensor_id;sensor_type;location;lat;lon;timestamp;P1;durP1;ratioP1;P2;durP2;ratioP2
6290;SDS011;3178;48.730;8.990;2023-02-21T00:01:35;5.40;;;3.03;;
6290;SDS011;3178;48.730;8.990;2023-02-21T00:04:19;5.27;;;2.80;;
6290;SDS011;3178;48.730;8.990;2023-02-21T00:07:03;5.43;;;3.17;;
6290;SDS011;3178;48.730;8.990;2023-02-21T00:09:48;5.30;;;3.60;;
6290;SDS011;3178;48.730;8.990;2023-02-21T00:12:32;5.80;;;3.50;;
6290;SDS011;3178;48.730;8.990;2023-02-21T00:15:16;8.23;;;4.00;;
6290;SDS011;3178;48.730;8.990;2023-02-21T00:18:00;7.73;;;3.50;;
6290;SDS011;3178;48.730;8.990;2023-02-21T00:20:44;13.30;;;4.30;;
6290;SDS011;3178;48.730;8.990;2023-02-21T00:23:32;10.80;;;3.70;;
6290;SDS011;3178;48.730;8.990;2023-02-21T00:26:19;8.27;;;4.13;;
6290;SDS011;3178;48.730;8.990;2023-02-21T00:29:05;14.57;;;4.13;;
6290;SDS011;3178;48.730;8.990;2023-02-21T00:31:49;6.13;;;3.33;;
6290;SDS011;3178;48.730;8.990;2023-02-21T00:34:34;7.17;;;4.17;;
6290;SDS011;3178;48.730;8.990;2023-02-21T00:37:18;8.27;;;3.73;;
6290;SDS011;3178;48.730;8.990;2023-02-21T00:40:02;6.90;;;3.30;;
6290;SDS011;3178;48.730;8.990;2023-02-21T00:42:47;8.63;;;3.43;;
6290;SDS011;3178;48.730;8.990;2023-02-21T00:45:31;7.97;;;3.40;;
6290;SDS011;3178;48.730;8.990;2023-02-21T00:48:21;6.57;;;3.77;;
6290;SDS011;3178;48.730;8.990;2023-02-21T00:51:06;4.67;;;3.00;;
6290;SDS011;3178;48.730;8.990;2023-02-21T00:53:50;5.10;;;3.40;;
6290;SDS011;3178;48.730;8.990;2023-02-21T00:56:35;11.33;;;3.87;;
6290;SDS011;3178;48.730;8.990;2023-02-21T00:59:19;4.83;;;2.90;;
6290;SDS011;3178;48.730;8.990;2023-02-21T01:02:03;13.57;;;4.30;;
6290;SDS011;3178;48.730;8.990;2023-02-21T01:04:47;10.57;;;3.77;;
6290;SDS011;3178;48.730;8.990;2023-02-21T01:07:31;6.80;;;3.60;;
6290;SDS011;3178;48.730;8.990;2023-02-21T01:10:16;10.27;;;3.60;;
6290;SDS011;3178;48.730;8.990;2023-02-21T01:13:00;8.03;;;3.33;;
6290;SDS011;3178;48.730;8.990;2023-02-21T01:15:44;8.40;;;3.80;;
6290;SDS011;3178;48.730;8.990;2023-02-21T01:18:28;5.77;;;3.73;;
6290;SDS011;3178;48.730;8.990;2023-02-21T01:21:13;11.13;;;3.47;;
6290;SDS011;3178;48.730;8.990;2023-02-21T01:23:59;5.93;;;3.00;;
6290;SDS011;3178;48.730;8.990;2023-02-21T01:26:43;9.00;;;4.00;;
6290;SDS011;3178;48.730;8.990;2023-02-21T01:29:27;5.77;;;3.60;;
6290;SDS011;3178;48.730;8.990;2023-02-21T01:32:12;7.90;;;4.27;;
6290;SDS011;3178;48.730;8.990;2023-02-21T01:34:57;6.53;;;3.50;;
6290;SDS011;3178;48.730;8.990;2023-02-21T01:37:41;5.43;;;3.70;;
6290;SDS011;3178;48.730;8.990;2023-02-21T01:40:25;7.63;;;3.93;;
6290;SDS011;3178;48.730;8.990;2023-02-21T01:43:28;6.57;;;4.73;;
6290;SDS011;3178;48.730;8.990;2023-02-21T01:46:13;6.77;;;3.97;;
6290;SDS011;3178;48.730;8.990;2023-02-21T01:49:00;8.20;;;3.67;;
6290;SDS011;3178;48.730;8.990;2023-02-21T01:51:48;8.53;;;3.83;;
6290;SDS011;3178;48.730;8.990;2023-02-21T01:54:33;7.33;;;4.40;;
6290;SDS011;3178;48.730;8.990;2023-02-21T01:57:21;8.00;;;4.10;;
6290;SDS011;3178;48.730;8.990;2023-02-21T02:00:06;10.00;;;5.30;;
6290;SDS011;3178;48.730;8.990;2023-02-21T02:05:43;16.13;;;9.40;;
6290;SDS011;3178;48.730;8.990;2023-02-21T02:08:31;9.60;;;7.20;;
6290;SDS011;3178;48.730;8.990;2023-02-21T02:11:19;10.53;;;6.83;;
6290;SDS011;3178;48.730;8.990;2023-02-21T02:22:12;9.97;;;4.03;;
6290;SDS011;3178;48.730;8.990;2023-02-21T02:24:59;6.20;;;3.47;;
6290;SDS011;3178;48.730;8.990;2023-02-21T02:30:51;5.03;;;3.53;;
6290;SDS011;3178;48.730;8.990;2023-02-21T02:36:09;7.93;;;4.17;;
6290;SDS011;3178;48.730;8.990;2023-02-21T02:41:32;7.77;;;3.77;;
6290;SDS011;3178;48.730;8.990;2023-02-21T02:44:05;7.27;;;4.00;;
6290;SDS011;3178;48.730;8.990;2023-02-21T02:46:50;10.00;;;3.83;;
6290;SDS011;3178;48.730;8.990;2023-02-21T02:51:44;6.57;;;3.33;;
6290;SDS011;3178;48.730;8.990;2023-02-21T02:54:11;5.40;;;3.90;;
6290;SDS011;3178;48.730;8.990;2023-02-21T02:56:36;7.33;;;4.13;;
6290;SDS011;3178;48.730;8.990;2023-02-21T02:59:09;6.67;;;3.77;;
6290;SDS011;3178;48.730;8.990;2023-02-21T03:15:20;7.63;;;3.30;;
6290;SDS011;3178;48.730;8.990;2023-02-21T03:20:49;6.77;;;2.97;;
6290;SDS011;3178;48.730;8.990;2023-02-21T03:23:20;4.90;;;2.97;;
6290;SDS011;3178;48.730;8.990;2023-02-21T03:25:49;7.83;;;3.67;;
6290;SDS011;3178;48.730;8.990;2023-02-21T03:28:16;6.23;;;3.20;;
6290;SDS011;3178;48.730;8.990;2023-02-21T03:30:42;5.43;;;3.40;;
6290;SDS011;3178;48.730;8.990;2023-02-21T03:33:09;7.90;;;3.77;;
6290;SDS011;3178;48.730;8.990;2023-02-21T03:35:35;7.23;;;3.80;;
6290;SDS011;3178;48.730;8.990;2023-02-21T03:38:01;11.07;;;4.23;;
6290;SDS011;3178;48.730;8.990;2023-02-21T03:40:30;7.80;;;4.43;;
6290;SDS011;3178;48.730;8.990;2023-02-21T03:42:58;8.47;;;4.07;;
6290;SDS011;3178;48.730;8.990;2023-02-21T03:45:25;9.07;;;6.53;;
6290;SDS011;3178;48.730;8.990;2023-02-21T03:47:51;10.23;;;5.90;;
6290;SDS011;3178;48.730;8.990;2023-02-21T03:50:16;13.10;;;6.77;;
6290;SDS011;3178;48.730;8.990;2023-02-21T03:52:42;8.10;;;5.20;;
6290;SDS011;3178;48.730;8.990;2023-02-21T03:55:08;11.10;;;5.03;;
6290;SDS011;3178;48.730;8.990;2023-02-21T03:57:34;6.80;;;3.90;;
6290;SDS011;3178;48.730;8.990;2023-02-21T03:59:59;14.33;;;3.97;;
6290;SDS011;3178;48.730;8.990;2023-02-21T04:02:25;7.50;;;3.30;;
6290;SDS011;3178;48.730;8.990;2023-02-21T04:04:51;4.87;;;3.13;;
6290;SDS011;3178;48.730;8.990;2023-02-21T04:07:17;7.43;;;3.00;;
6290;SDS011;3178;48.730;8.990;2023-02-21T04:09:44;9.70;;;3.90;;
6290;SDS011;3178;48.730;8.990;2023-02-21T04:12:10;7.73;;;3.60;;
6290;SDS011;3178;48.730;8.990;2023-02-21T04:14:36;7.63;;;3.40;;
6290;SDS011;3178;48.730;8.990;2023-02-21T04:17:02;7.40;;;3.47;;
6290;SDS011;3178;48.730;8.990;2023-02-21T04:19:28;7.20;;;3.00;;
6290;SDS011;3178;48.730;8.990;2023-02-21T04:21:53;9.70;;;2.80;;
6290;SDS011;3178;48.730;8.990;2023-02-21T04:24:19;9.70;;;3.67;;
6290;SDS011;3178;48.730;8.990;2023-02-21T04:26:45;6.90;;;3.40;;
6290;SDS011;3178;48.730;8.990;2023-02-21T04:29:10;5.93;;;2.87;;
6290;SDS011;3178;48.730;8.990;2023-02-21T04:31:36;8.43;;;3.30;;
6290;SDS011;3178;48.730;8.990;2023-02-21T04:34:02;13.63;;;3.10;;
6290;SDS011;3178;48.730;8.990;2023-02-21T04:36:27;11.57;;;3.37;;
6290;SDS011;3178;48.730;8.990;2023-02-21T04:38:53;8.73;;;3.07;;
6290;SDS011;3178;48.730;8.990;2023-02-21T04:41:19;4.47;;;2.67;;
6290;SDS011;3178;48.730;8.990;2023-02-21T04:43:44;7.63;;;3.40;;
6290;SDS011;3178;48.730;8.990;2023-02-21T04:46:11;6.20;;;3.20;;
6290;SDS011;3178;48.730;8.990;2023-02-21T04:48:42;6.03;;;3.03;;
6290;SDS011;3178;48.730;8.990;2023-02-21T04:51:08;7.20;;;3.03;;
6290;SDS011;3178;48.730;8.990;2023-02-21T04:53:34;7.93;;;3.60;;
6290;SDS011;3178;48.730;8.990;2023-02-21T04:56:00;4.07;;;2.50;;
6290;SDS011;3178;48.730;8.990;2023-02-21T04:58:25;6.07;;;2.73;;
6290;SDS011;3178;48.730;8.990;2023-02-21T05:00:51;4.33;;;3.13;;
6290;SDS011;3178;48.730;8.990;2023-02-21T05:03:16;6.17;;;2.93;;
6290;SDS011;3178;48.730;8.990;2023-02-21T05:05:42;6.63;;;3.70;;
6290;SDS011;3178;48.730;8.990;2023-02-21T05:08:08;17.00;;;4.23;;
6290;SDS011;3178;48.730;8.990;2023-02-21T05:10:34;7.83;;;6.13;;
6290;SDS011;3178;48.730;8.990;2023-02-21T05:12:59;6.27;;;3.53;;
6290;SDS011;3178;48.730;8.990;2023-02-21T05:15:25;8.40;;;3.30;;
6290;SDS011;3178;48.730;8.990;2023-02-21T05:17:50;7.33;;;3.60;;
6290;SDS011;3178;48.730;8.990;2023-02-21T05:20:16;8.90;;;4.03;;
6290;SDS011;3178;48.730;8.990;2023-02-21T05:22:41;10.23;;;5.73;;
6290;SDS011;3178;48.730;8.990;2023-02-21T05:25:17;8.97;;;4.37;;
6290;SDS011;3178;48.730;8.990;2023-02-21T05:27:44;4.77;;;3.50;;
6290;SDS011;3178;48.730;8.990;2023-02-21T05:30:10;5.23;;;3.27;;
6290;SDS011;3178;48.730;8.990;2023-02-21T05:32:37;7.63;;;3.27;;
6290;SDS011;3178;48.730;8.990;2023-02-21T05:35:03;22.93;;;3.17;;
6290;SDS011;3178;48.730;8.990;2023-02-21T05:37:29;5.37;;;2.70;;
6290;SDS011;3178;48.730;8.990;2023-02-21T05:39:54;6.03;;;2.70;;
6290;SDS011;3178;48.730;8.990;2023-02-21T05:42:20;6.37;;;2.57;;
6290;SDS011;3178;48.730;8.990;2023-02-21T05:44:46;9.07;;;2.90;;
6290;SDS011;3178;48.730;8.990;2023-02-21T05:47:12;3.17;;;2.57;;
6290;SDS011;3178;48.730;8.990;2023-02-21T05:49:39;5.40;;;2.90;;
6290;SDS011;3178;48.730;8.990;2023-02-21T05:52:05;4.90;;;3.10;;
6290;SDS011;3178;48.730;8.990;2023-02-21T05:54:31;4.60;;;2.83;;
6290;SDS011;3178;48.730;8.990;2023-02-21T05:56:57;8.60;;;3.40;;
6290;SDS011;3178;48.730;8.990;2023-02-21T05:59:22;4.50;;;2.50;;
6290;SDS011;3178;48.730;8.990;2023-02-21T06:01:49;5.37;;;2.83;;
6290;SDS011;3178;48.730;8.990;2023-02-21T06:04:15;5.53;;;2.90;;
6290;SDS011;3178;48.730;8.990;2023-02-21T06:06:41;7.87;;;3.70;;
6290;SDS011;3178;48.730;8.990;2023-02-21T06:09:08;5.33;;;3.33;;
6290;SDS011;3178;48.730;8.990;2023-02-21T06:11:34;4.93;;;3.10;;
6290;SDS011;3178;48.730;8.990;2023-02-21T06:14:02;6.60;;;3.53;;
6290;SDS011;3178;48.730;8.990;2023-02-21T06:16:35;8.63;;;2.87;;
6290;SDS011;3178;48.730;8.990;2023-02-21T06:19:02;7.27;;;4.00;;
6290;SDS011;3178;48.730;8.990;2023-02-21T06:21:29;9.30;;;3.03;;
6290;SDS011;3178;48.730;8.990;2023-02-21T06:23:55;5.80;;;2.73;;
6290;SDS011;3178;48.730;8.990;2023-02-21T06:26:21;6.17;;;3.30;;
6290;SDS011;3178;48.730;8.990;2023-02-21T06:28:47;3.43;;;2.43;;
6290;SDS011;3178;48.730;8.990;2023-02-21T06:31:13;4.67;;;2.73;;
6290;SDS011;3178;48.730;8.990;2023-02-21T06:33:40;7.03;;;3.60;;
6290;SDS011;3178;48.730;8.990;2023-02-21T06:36:06;4.53;;;3.03;;
6290;SDS011;3178;48.730;8.990;2023-02-21T06:38:34;6.47;;;3.27;;
6290;SDS011;3178;48.730;8.990;2023-02-21T06:41:04;6.80;;;3.10;;
6290;SDS011;3178;48.730;8.990;2023-02-21T06:43:30;10.20;;;3.33;;
6290;SDS011;3178;48.730;8.990;2023-02-21T06:45:56;5.50;;;3.73;;
6290;SDS011;3178;48.730;8.990;2023-02-21T06:48:21;4.93;;;3.20;;
6290;SDS011;3178;48.730;8.990;2023-02-21T06:50:47;6.70;;;3.23;;
6290;SDS011;3178;48.730;8.990;2023-02-21T06:53:12;5.80;;;2.90;;
6290;SDS011;3178;48.730;8.990;2023-02-21T06:55:38;73.40;;;33.97;;
6290;SDS011;3178;48.730;8.990;2023-02-21T06:58:04;48.03;;;23.23;;
6290;SDS011;3178;48.730;8.990;2023-02-21T07:00:29;14.33;;;8.93;;
6290;SDS011;3178;48.730;8.990;2023-02-21T07:02:55;6.90;;;4.40;;
6290;SDS011;3178;48.730;8.990;2023-02-21T07:05:20;5.63;;;3.10;;
6290;SDS011;3178;48.730;8.990;2023-02-21T07:07:45;13.23;;;3.90;;
6290;SDS011;3178;48.730;8.990;2023-02-21T07:10:12;4.87;;;3.23;;
6290;SDS011;3178;48.730;8.990;2023-02-21T07:12:38;11.53;;;6.00;;
6290;SDS011;3178;48.730;8.990;2023-02-21T07:15:04;7.23;;;4.20;;
6290;SDS011;3178;48.730;8.990;2023-02-21T07:17:30;7.20;;;3.93;;
6290;SDS011;3178;48.730;8.990;2023-02-21T07:19:56;4.40;;;3.23;;
6290;SDS011;3178;48.730;8.990;2023-02-21T07:22:22;6.87;;;3.30;;
6290;SDS011;3178;48.730;8.990;2023-02-21T07:24:54;6.20;;;3.60;;
6290;SDS011;3178;48.730;8.990;2023-02-21T07:27:20;18.77;;;5.00;;
6290;SDS011;3178;48.730;8.990;2023-02-21T07:29:46;9.90;;;5.33;;
6290;SDS011;3178;48.730;8.990;2023-02-21T07:32:13;8.57;;;4.37;;
6290;SDS011;3178;48.730;8.990;2023-02-21T07:34:40;11.53;;;3.87;;
6290;SDS011;3178;48.730;8.990;2023-02-21T07:37:05;8.23;;;4.07;;
6290;SDS011;3178;48.730;8.990;2023-02-21T07:39:31;6.10;;;4.10;;
6290;SDS011;3178;48.730;8.990;2023-02-21T07:41:56;8.70;;;3.80;;
6290;SDS011;3178;48.730;8.990;2023-02-21T07:44:22;8.00;;;4.37;;
6290;SDS011;3178;48.730;8.990;2023-02-21T07:46:48;10.30;;;4.53;;
6290;SDS011;3178;48.730;8.990;2023-02-21T07:49:13;11.00;;;5.30;;
6290;SDS011;3178;48.730;8.990;2023-02-21T07:51:39;7.50;;;3.93;;
6290;SDS011;3178;48.730;8.990;2023-02-21T07:54:04;13.93;;;4.47;;
6290;SDS011;3178;48.730;8.990;2023-02-21T07:56:30;16.20;;;4.97;;
6290;SDS011;3178;48.730;8.990;2023-02-21T07:58:55;13.93;;;4.87;;
6290;SDS011;3178;48.730;8.990;2023-02-21T08:01:22;14.83;;;4.60;;
6290;SDS011;3178;48.730;8.990;2023-02-21T08:03:49;18.33;;;4.50;;
6290;SDS011;3178;48.730;8.990;2023-02-21T08:06:14;15.90;;;5.33;;
6290;SDS011;3178;48.730;8.990;2023-02-21T08:08:40;21.87;;;5.57;;
6290;SDS011;3178;48.730;8.990;2023-02-21T08:11:05;14.00;;;4.87;;
6290;SDS011;3178;48.730;8.990;2023-02-21T08:13:31;11.93;;;4.47;;
6290;SDS011;3178;48.730;8.990;2023-02-21T08:15:57;8.80;;;3.97;;
6290;SDS011;3178;48.730;8.990;2023-02-21T08:18:22;19.03;;;3.60;;
6290;SDS011;3178;48.730;8.990;2023-02-21T08:20:52;10.30;;;4.63;;
6290;SDS011;3178;48.730;8.990;2023-02-21T08:23:19;12.93;;;4.80;;
6290;SDS011;3178;48.730;8.990;2023-02-21T08:25:45;7.03;;;4.30;;
6290;SDS011;3178;48.730;8.990;2023-02-21T08:28:11;17.70;;;4.67;;
6290;SDS011;3178;48.730;8.990;2023-02-21T08:30:37;8.93;;;4.40;;
6290;SDS011;3178;48.730;8.990;2023-02-21T08:33:03;11.50;;;4.00;;
6290;SDS011;3178;48.730;8.990;2023-02-21T08:35:28;18.70;;;5.60;;
6290;SDS011;3178;48.730;8.990;2023-02-21T08:37:54;14.90;;;4.87;;
6290;SDS011;3178;48.730;8.990;2023-02-21T08:40:20;7.23;;;3.97;;
6290;SDS011;3178;48.730;8.990;2023-02-21T08:42:48;8.50;;;4.07;;
6290;SDS011;3178;48.730;8.990;2023-02-21T08:45:15;16.60;;;5.00;;
6290;SDS011;3178;48.730;8.990;2023-02-21T08:47:42;17.53;;;4.10;;
6290;SDS011;3178;48.730;8.990;2023-02-21T08:50:08;15.90;;;4.33;;
6290;SDS011;3178;48.730;8.990;2023-02-21T08:52:34;22.13;;;5.13;;
6290;SDS011;3178;48.730;8.990;2023-02-21T08:54:59;8.70;;;4.20;;
6290;SDS011;3178;48.730;8.990;2023-02-21T08:57:25;12.03;;;4.60;;
6290;SDS011;3178;48.730;8.990;2023-02-21T08:59:50;15.87;;;4.27;;
6290;SDS011;3178;48.730;8.990;2023-02-21T09:02:21;10.37;;;4.40;;
6290;SDS011;3178;48.730;8.990;2023-02-21T09:04:52;18.27;;;4.63;;
6290;SDS011;3178;48.730;8.990;2023-02-21T09:07:19;10.20;;;4.17;;
6290;SDS011;3178;48.730;8.990;2023-02-21T09:09:46;8.60;;;4.40;;
6290;SDS011;3178;48.730;8.990;2023-02-21T09:12:12;10.10;;;4.00;;
6290;SDS011;3178;48.730;8.990;2023-02-21T09:14:39;8.33;;;4.03;;
6290;SDS011;3178;48.730;8.990;2023-02-21T09:17:06;10.53;;;4.30;;
6290;SDS011;3178;48.730;8.990;2023-02-21T09:19:33;7.53;;;3.00;;
6290;SDS011;3178;48.730;8.990;2023-02-21T09:21:59;8.40;;;3.20;;
6290;SDS011;3178;48.730;8.990;2023-02-21T09:24:26;5.23;;;2.93;;
6290;SDS011;3178;48.730;8.990;2023-02-21T09:26:53;12.33;;;3.03;;
6290;SDS011;3178;48.730;8.990;2023-02-21T09:29:23;10.17;;;3.10;;
6290;SDS011;3178;48.730;8.990;2023-02-21T09:31:50;5.50;;;2.57;;
6290;SDS011;3178;48.730;8.990;2023-02-21T09:34:16;10.40;;;3.20;;
6290;SDS011;3178;48.730;8.990;2023-02-21T09:36:42;9.23;;;2.70;;
6290;SDS011;3178;48.730;8.990;2023-02-21T09:39:08;4.70;;;3.27;;
6290;SDS011;3178;48.730;8.990;2023-02-21T09:41:34;6.17;;;2.70;;
6290;SDS011;3178;48.730;8.990;2023-02-21T09:44:00;7.83;;;2.83;;
6290;SDS011;3178;48.730;8.990;2023-02-21T09:46:33;17.13;;;4.60;;
6290;SDS011;3178;48.730;8.990;2023-02-21T09:49:02;7.40;;;2.60;;
6290;SDS011;3178;48.730;8.990;2023-02-21T09:51:34;11.80;;;3.07;;
6290;SDS011;3178;48.730;8.990;2023-02-21T09:54:05;8.60;;;2.53;;
6290;SDS011;3178;48.730;8.990;2023-02-21T09:56:37;5.53;;;2.70;;
6290;SDS011;3178;48.730;8.990;2023-02-21T09:59:08;7.13;;;2.47;;
6290;SDS011;3178;48.730;8.990;2023-02-21T10:04:17;7.33;;;2.83;;
6290;SDS011;3178;48.730;8.990;2023-02-21T10:06:56;3.83;;;1.93;;
6290;SDS011;3178;48.730;8.990;2023-02-21T10:10:00;4.63;;;2.45;;
6290;SDS011;3178;48.730;8.990;2023-02-21T10:15:07;9.70;;;2.95;;
6290;SDS011;3178;48.730;8.990;2023-02-21T10:20:28;4.43;;;2.13;;
6290;SDS011;3178;48.730;8.990;2023-02-21T10:23:01;3.25;;;2.72;;
6290;SDS011;3178;48.730;8.990;2023-02-21T10:25:31;5.20;;;2.78;;
6290;SDS011;3178;48.730;8.990;2023-02-21T10:27:59;11.23;;;2.70;;
6290;SDS011;3178;48.730;8.990;2023-02-21T10:32:59;3.92;;;1.88;;
6290;SDS011;3178;48.730;8.990;2023-02-21T10:35:30;3.47;;;2.40;;
6290;SDS011;3178;48.730;8.990;2023-02-21T10:37:59;3.58;;;2.00;;
6290;SDS011;3178;48.730;8.990;2023-02-21T10:40:47;2.40;;;1.70;;
6290;SDS011;3178;48.730;8.990;2023-02-21T10:43:18;2.17;;;1.08;;
6290;SDS011;3178;48.730;8.990;2023-02-21T10:45:56;1.88;;;1.05;;
6290;SDS011;3178;48.730;8.990;2023-02-21T10:48:23;1.30;;;1.10;;
6290;SDS011;3178;48.730;8.990;2023-02-21T10:53:32;2.38;;;0.98;;
6290;SDS011;3178;48.730;8.990;2023-02-21T11:03:50;2.25;;;1.00;;
6290;SDS011;3178;48.730;8.990;2023-02-21T11:12:15;3.67;;;1.17;;
6290;SDS011;3178;48.730;8.990;2023-02-21T11:14:40;2.42;;;0.98;;
6290;SDS011;3178;48.730;8.990;2023-02-21T11:20:23;1.98;;;1.35;;
6290;SDS011;3178;48.730;8.990;2023-02-21T11:22:44;2.60;;;1.38;;
6290;SDS011;3178;48.730;8.990;2023-02-21T11:27:43;8.82;;;1.67;;
6290;SDS011;3178;48.730;8.990;2023-02-21T11:30:19;4.68;;;1.58;;
6290;SDS011;3178;48.730;8.990;2023-02-21T11:32:50;3.97;;;1.42;;
6290;SDS011;3178;48.730;8.990;2023-02-21T11:38:03;7.15;;;1.60;;
6290;SDS011;3178;48.730;8.990;2023-02-21T11:40:33;2.85;;;1.85;;
6290;SDS011;3178;48.730;8.990;2023-02-21T11:45:56;1.70;;;1.50;;
6290;SDS011;3178;48.730;8.990;2023-02-21T11:48:36;3.90;;;1.40;;
6290;SDS011;3178;48.730;8.990;2023-02-21T11:51:16;9.07;;;1.38;;
6290;SDS011;3178;48.730;8.990;2023-02-21T11:53:50;4.15;;;1.40;;
6290;SDS011;3178;48.730;8.990;2023-02-21T11:56:33;3.22;;;1.20;;
6290;SDS011;3178;48.730;8.990;2023-02-21T12:05:08;3.28;;;1.30;;
6290;SDS011;3178;48.730;8.990;2023-02-21T12:08:02;2.17;;;1.58;;
6290;SDS011;3178;48.730;8.990;2023-02-21T12:33:37;2.33;;;1.13;;
6290;SDS011;3178;48.730;8.990;2023-02-21T12:42:24;3.58;;;1.20;;
6290;SDS011;3178;48.730;8.990;2023-02-21T12:45:42;2.55;;;1.08;;
6290;SDS011;3178;48.730;8.990;2023-02-21T12:50:56;8.25;;;1.60;;
6290;SDS011;3178;48.730;8.990;2023-02-21T12:53:40;3.20;;;1.90;;
6290;SDS011;3178;48.730;8.990;2023-02-21T12:56:17;2.30;;;1.23;;
6290;SDS011;3178;48.730;8.990;2023-02-21T12:58:48;4.35;;;1.30;;
6290;SDS011;3178;48.730;8.990;2023-02-21T13:01:19;2.65;;;1.40;;
6290;SDS011;3178;48.730;8.990;2023-02-21T13:04:15;4.55;;;1.42;;
6290;SDS011;3178;48.730;8.990;2023-02-21T13:07:14;2.00;;;1.30;;
6290;SDS011;3178;48.730;8.990;2023-02-21T13:09:55;7.20;;;1.42;;
6290;SDS011;3178;48.730;8.990;2023-02-21T13:12:45;4.43;;;1.52;;
6290;SDS011;3178;48.730;8.990;2023-02-21T13:15:17;3.92;;;1.45;;
6290;SDS011;3178;48.730;8.990;2023-02-21T13:20:40;1.73;;;1.40;;
6290;SDS011;3178;48.730;8.990;2023-02-21T13:29:16;1.92;;;1.20;;
6290;SDS011;3178;48.730;8.990;2023-02-21T13:32:00;3.78;;;1.48;;
6290;SDS011;3178;48.730;8.990;2023-02-21T13:34:34;2.38;;;1.00;;
6290;SDS011;3178;48.730;8.990;2023-02-21T13:37:07;3.65;;;1.20;;
6290;SDS011;3178;48.730;8.990;2023-02-21T13:39:39;2.22;;;1.02;;
6290;SDS011;3178;48.730;8.990;2023-02-21T13:42:14;1.83;;;0.93;;
6290;SDS011;3178;48.730;8.990;2023-02-21T13:44:44;7.22;;;1.30;;
6290;SDS011;3178;48.730;8.990;2023-02-21T13:47:14;1.88;;;0.95;;
6290;SDS011;3178;48.730;8.990;2023-02-21T13:57:40;1.30;;;0.90;;
6290;SDS011;3178;48.730;8.990;2023-02-21T14:13:55;1.20;;;0.80;;
6290;SDS011;3178;48.730;8.990;2023-02-21T14:19:21;2.63;;;0.95;;
6290;SDS011;3178;48.730;8.990;2023-02-21T14:21:59;4.03;;;1.08;;
6290;SDS011;3178;48.730;8.990;2023-02-21T14:24:48;4.18;;;1.10;;
6290;SDS011;3178;48.730;8.990;2023-02-21T14:29:45;1.88;;;1.00;;
6290;SDS011;3178;48.730;8.990;2023-02-21T14:32:46;2.70;;;1.10;;
6290;SDS011;3178;48.730;8.990;2023-02-21T14:37:50;2.40;;;1.13;;
6290;SDS011;3178;48.730;8.990;2023-02-21T14:51:16;2.03;;;0.95;;
6290;SDS011;3178;48.730;8.990;2023-02-21T14:57:13;2.85;;;1.13;;
6290;SDS011;3178;48.730;8.990;2023-02-21T15:02:33;1.60;;;0.82;;
6290;SDS011;3178;48.730;8.990;2023-02-21T15:08:16;2.07;;;1.10;;
6290;SDS011;3178;48.730;8.990;2023-02-21T15:10:48;3.37;;;1.47;;
6290;SDS011;3178;48.730;8.990;2023-02-21T15:13:26;2.80;;;1.03;;
6290;SDS011;3178;48.730;8.990;2023-02-21T15:18:32;5.13;;;1.10;;
6290;SDS011;3178;48.730;8.990;2023-02-21T15:21:04;2.93;;;1.30;;
6290;SDS011;3178;48.730;8.990;2023-02-21T15:23:37;1.20;;;0.90;;
6290;SDS011;3178;48.730;8.990;2023-02-21T15:28:45;3.93;;;1.97;;
6290;SDS011;3178;48.730;8.990;2023-02-21T15:31:26;3.53;;;1.60;;
6290;SDS011;3178;48.730;8.990;2023-02-21T15:33:52;8.60;;;1.93;;
6290;SDS011;3178;48.730;8.990;2023-02-21T15:36:19;4.83;;;2.17;;
6290;SDS011;3178;48.730;8.990;2023-02-21T15:38:51;5.80;;;2.30;;
6290;SDS011;3178;48.730;8.990;2023-02-21T15:44:10;9.00;;;3.17;;
6290;SDS011;3178;48.730;8.990;2023-02-21T15:46:46;8.23;;;2.43;;
6290;SDS011;3178;48.730;8.990;2023-02-21T15:49:20;3.33;;;1.70;;
6290;SDS011;3178;48.730;8.990;2023-02-21T15:51:49;9.50;;;2.80;;
6290;SDS011;3178;48.730;8.990;2023-02-21T15:56:40;6.33;;;2.10;;
6290;SDS011;3178;48.730;8.990;2023-02-21T15:59:11;6.47;;;2.30;;
6290;SDS011;3178;48.730;8.990;2023-02-21T16:01:42;7.87;;;2.33;;
6290;SDS011;3178;48.730;8.990;2023-02-21T16:04:18;3.87;;;2.60;;
6290;SDS011;3178;48.730;8.990;2023-02-21T16:06:55;5.50;;;2.10;;
6290;SDS011;3178;48.730;8.990;2023-02-21T16:09:29;7.03;;;2.33;;
6290;SDS011;3178;48.730;8.990;2023-02-21T16:14:45;10.70;;;3.33;;
6290;SDS011;3178;48.730;8.990;2023-02-21T16:19:56;9.83;;;2.63;;
6290;SDS011;3178;48.730;8.990;2023-02-21T16:22:34;4.47;;;2.10;;
6290;SDS011;3178;48.730;8.990;2023-02-21T16:27:32;10.03;;;2.80;;
6290;SDS011;3178;48.730;8.990;2023-02-21T16:29:57;9.23;;;3.17;;
6290;SDS011;3178;48.730;8.990;2023-02-21T16:32:23;5.30;;;2.00;;
6290;SDS011;3178;48.730;8.990;2023-02-21T16:34:49;3.13;;;2.03;;
6290;SDS011;3178;48.730;8.990;2023-02-21T16:37:18;3.70;;;1.70;;
6290;SDS011;3178;48.730;8.990;2023-02-21T16:39:45;4.40;;;2.10;;
6290;SDS011;3178;48.730;8.990;2023-02-21T16:42:11;7.90;;;2.60;;
6290;SDS011;3178;48.730;8.990;2023-02-21T16:44:37;5.93;;;2.50;;
6290;SDS011;3178;48.730;8.990;2023-02-21T16:47:03;10.17;;;2.30;;
6290;SDS011;3178;48.730;8.990;2023-02-21T16:49:30;10.73;;;2.87;;
6290;SDS011;3178;48.730;8.990;2023-02-21T16:51:56;5.27;;;2.27;;
6290;SDS011;3178;48.730;8.990;2023-02-21T16:54:22;6.40;;;2.03;;
6290;SDS011;3178;48.730;8.990;2023-02-21T16:56:48;8.37;;;2.93;;
6290;SDS011;3178;48.730;8.990;2023-02-21T16:59:17;5.50;;;2.90;;
6290;SDS011;3178;48.730;8.990;2023-02-21T17:01:45;8.93;;;3.47;;
6290;SDS011;3178;48.730;8.990;2023-02-21T17:04:18;5.83;;;2.60;;
6290;SDS011;3178;48.730;8.990;2023-02-21T17:06:47;9.90;;;3.30;;
6290;SDS011;3178;48.730;8.990;2023-02-21T17:09:18;6.93;;;2.53;;
6290;SDS011;3178;48.730;8.990;2023-02-21T17:11:45;9.00;;;2.63;;
6290;SDS011;3178;48.730;8.990;2023-02-21T17:14:11;6.03;;;2.67;;
6290;SDS011;3178;48.730;8.990;2023-02-21T17:16:37;11.13;;;3.47;;
6290;SDS011;3178;48.730;8.990;2023-02-21T17:19:03;7.17;;;2.53;;
6290;SDS011;3178;48.730;8.990;2023-02-21T17:21:30;7.13;;;2.47;;
6290;SDS011;3178;48.730;8.990;2023-02-21T17:23:55;12.33;;;3.10;;
6290;SDS011;3178;48.730;8.990;2023-02-21T17:26:23;11.23;;;2.90;;
6290;SDS011;3178;48.730;8.990;2023-02-21T17:28:48;10.93;;;3.30;;
6290;SDS011;3178;48.730;8.990;2023-02-21T17:31:15;10.90;;;3.30;;
6290;SDS011;3178;48.730;8.990;2023-02-21T17:33:44;8.53;;;3.10;;
6290;SDS011;3178;48.730;8.990;2023-02-21T17:36:16;9.17;;;3.53;;
6290;SDS011;3178;48.730;8.990;2023-02-21T17:38:42;8.23;;;2.93;;
6290;SDS011;3178;48.730;8.990;2023-02-21T17:41:08;5.53;;;2.90;;
6290;SDS011;3178;48.730;8.990;2023-02-21T17:43:33;11.13;;;3.33;;
6290;SDS011;3178;48.730;8.990;2023-02-21T17:45:59;8.03;;;2.83;;
6290;SDS011;3178;48.730;8.990;2023-02-21T17:48:24;6.77;;;2.50;;
6290;SDS011;3178;48.730;8.990;2023-02-21T17:50:50;8.13;;;2.80;;
6290;SDS011;3178;48.730;8.990;2023-02-21T17:53:16;6.70;;;2.37;;
6290;SDS011;3178;48.730;8.990;2023-02-21T17:55:41;3.93;;;2.47;;
6290;SDS011;3178;48.730;8.990;2023-02-21T17:58:07;13.47;;;3.00;;
6290;SDS011;3178;48.730;8.990;2023-02-21T18:00:33;7.10;;;2.77;;
6290;SDS011;3178;48.730;8.990;2023-02-21T18:03:00;13.20;;;2.53;;
6290;SDS011;3178;48.730;8.990;2023-02-21T18:05:28;7.47;;;2.70;;
6290;SDS011;3178;48.730;8.990;2023-02-21T18:07:55;10.10;;;3.03;;
6290;SDS011;3178;48.730;8.990;2023-02-21T18:10:21;10.17;;;4.80;;
6290;SDS011;3178;48.730;8.990;2023-02-21T18:12:48;10.90;;;3.30;;
6290;SDS011;3178;48.730;8.990;2023-02-21T18:15:15;6.33;;;3.60;;
6290;SDS011;3178;48.730;8.990;2023-02-21T18:17:40;11.50;;;3.00;;
6290;SDS011;3178;48.730;8.990;2023-02-21T18:20:06;9.17;;;2.63;;
6290;SDS011;3178;48.730;8.990;2023-02-21T18:22:33;5.13;;;2.60;;
6290;SDS011;3178;48.730;8.990;2023-02-21T18:25:00;14.47;;;2.57;;
6290;SDS011;3178;48.730;8.990;2023-02-21T18:27:25;8.67;;;3.13;;
6290;SDS011;3178;48.730;8.990;2023-02-21T18:29:51;8.83;;;2.83;;
6290;SDS011;3178;48.730;8.990;2023-02-21T18:32:20;5.23;;;1.93;;
6290;SDS011;3178;48.730;8.990;2023-02-21T18:34:46;17.00;;;3.03;;
6290;SDS011;3178;48.730;8.990;2023-02-21T18:37:12;3.37;;;2.40;;
6290;SDS011;3178;48.730;8.990;2023-02-21T18:39:37;6.37;;;3.00;;
6290;SDS011;3178;48.730;8.990;2023-02-21T18:42:03;9.27;;;3.60;;
6290;SDS011;3178;48.730;8.990;2023-02-21T18:44:29;13.90;;;4.90;;
6290;SDS011;3178;48.730;8.990;2023-02-21T18:46:55;14.10;;;3.43;;
6290;SDS011;3178;48.730;8.990;2023-02-21T18:49:22;8.60;;;3.10;;